SBCJ

Carajás Airport

Airport
ICAO code
SBCJ
IATA Code
CKS
Summary
ICAO Region
CARSAM
ICAO Territory
Location

Carajás, Para

Serving
Parauapebas
Elevation
2064 ft
Coordinates
6° 6' 55" S , 50° 0' 5" W
KCC
Metar
SBCJ 292000Z 15001KT 9999 FEW035 BKN100 27/22 Q1017

Carajás Airport is the airport serving Parauapebas, Brazil.

Climatology

Tropical savannah climate (Köppen climate classification Aw)

Runways

Designator Length Width Surface Rops
10/28 2000 45 ASP No/No

Airport map

Aerial View

SKYbrary Partners:

Safety knowledge contributed by: